sensor_id;sensor_type;location;lat;lon;timestamp;P1;durP1;ratioP1;P2;durP2;ratioP2
45366;SDS011;31100;55.848;37.636;2023-03-12T00:00:28;5.60;;;3.97;;
45366;SDS011;31100;55.848;37.636;2023-03-12T00:02:54;6.28;;;4.10;;
45366;SDS011;31100;55.848;37.636;2023-03-12T00:05:19;6.75;;;4.15;;
45366;SDS011;31100;55.848;37.636;2023-03-12T00:07:46;8.18;;;4.10;;
45366;SDS011;31100;55.848;37.636;2023-03-12T00:10:12;7.40;;;4.70;;
45366;SDS011;31100;55.848;37.636;2023-03-12T00:12:38;6.72;;;4.88;;
45366;SDS011;31100;55.848;37.636;2023-03-12T00:15:04;7.47;;;4.65;;
45366;SDS011;31100;55.848;37.636;2023-03-12T00:17:30;7.00;;;4.90;;
45366;SDS011;31100;55.848;37.636;2023-03-12T00:19:55;8.00;;;4.80;;
45366;SDS011;31100;55.848;37.636;2023-03-12T00:22:21;7.93;;;5.35;;
45366;SDS011;31100;55.848;37.636;2023-03-12T00:24:54;8.45;;;5.47;;
45366;SDS011;31100;55.848;37.636;2023-03-12T00:29:46;7.32;;;4.80;;
45366;SDS011;31100;55.848;37.636;2023-03-12T00:32:11;9.32;;;5.60;;
45366;SDS011;31100;55.848;37.636;2023-03-12T00:34:37;7.00;;;3.97;;
45366;SDS011;31100;55.848;37.636;2023-03-12T00:37:02;7.13;;;5.10;;
45366;SDS011;31100;55.848;37.636;2023-03-12T00:39:28;8.50;;;5.75;;
45366;SDS011;31100;55.848;37.636;2023-03-12T00:41:53;7.53;;;5.32;;
45366;SDS011;31100;55.848;37.636;2023-03-12T00:44:19;7.97;;;5.18;;
45366;SDS011;31100;55.848;37.636;2023-03-12T00:46:44;8.73;;;5.35;;
45366;SDS011;31100;55.848;37.636;2023-03-12T00:49:10;8.23;;;5.20;;
45366;SDS011;31100;55.848;37.636;2023-03-12T00:51:36;7.47;;;5.30;;
45366;SDS011;31100;55.848;37.636;2023-03-12T00:54:02;8.20;;;5.32;;
45366;SDS011;31100;55.848;37.636;2023-03-12T00:56:28;8.05;;;5.43;;
45366;SDS011;31100;55.848;37.636;2023-03-12T00:58:55;7.95;;;5.00;;
45366;SDS011;31100;55.848;37.636;2023-03-12T01:01:20;7.40;;;5.13;;
45366;SDS011;31100;55.848;37.636;2023-03-12T01:03:46;7.65;;;5.20;;
45366;SDS011;31100;55.848;37.636;2023-03-12T01:06:12;8.98;;;5.18;;
45366;SDS011;31100;55.848;37.636;2023-03-12T01:08:38;7.47;;;5.10;;
45366;SDS011;31100;55.848;37.636;2023-03-12T01:11:03;8.05;;;5.35;;
45366;SDS011;31100;55.848;37.636;2023-03-12T01:13:29;7.88;;;5.68;;
45366;SDS011;31100;55.848;37.636;2023-03-12T01:15:55;10.98;;;6.32;;
45366;SDS011;31100;55.848;37.636;2023-03-12T01:18:21;7.32;;;5.25;;
45366;SDS011;31100;55.848;37.636;2023-03-12T01:20:47;8.02;;;5.60;;
45366;SDS011;31100;55.848;37.636;2023-03-12T01:23:12;8.27;;;5.38;;
45366;SDS011;31100;55.848;37.636;2023-03-12T01:25:39;7.55;;;5.10;;
45366;SDS011;31100;55.848;37.636;2023-03-12T01:28:05;8.85;;;5.70;;
45366;SDS011;31100;55.848;37.636;2023-03-12T01:30:30;8.80;;;5.85;;
45366;SDS011;31100;55.848;37.636;2023-03-12T01:32:56;8.82;;;6.03;;
45366;SDS011;31100;55.848;37.636;2023-03-12T01:35:22;11.35;;;5.57;;
45366;SDS011;31100;55.848;37.636;2023-03-12T01:37:47;11.07;;;6.53;;
45366;SDS011;31100;55.848;37.636;2023-03-12T01:40:17;9.95;;;6.30;;
45366;SDS011;31100;55.848;37.636;2023-03-12T01:42:50;10.38;;;6.35;;
45366;SDS011;31100;55.848;37.636;2023-03-12T01:48:47;14.77;;;7.72;;
45366;SDS011;31100;55.848;37.636;2023-03-12T01:51:16;15.00;;;8.75;;
45366;SDS011;31100;55.848;37.636;2023-03-12T01:53:43;17.92;;;9.65;;
45366;SDS011;31100;55.848;37.636;2023-03-12T01:56:10;21.15;;;10.32;;
45366;SDS011;31100;55.848;37.636;2023-03-12T01:58:37;25.65;;;11.60;;
45366;SDS011;31100;55.848;37.636;2023-03-12T02:01:05;24.00;;;11.27;;
45366;SDS011;31100;55.848;37.636;2023-03-12T02:03:31;23.60;;;11.63;;
45366;SDS011;31100;55.848;37.636;2023-03-12T02:05:59;28.17;;;13.02;;
45366;SDS011;31100;55.848;37.636;2023-03-12T02:08:28;27.80;;;12.98;;
45366;SDS011;31100;55.848;37.636;2023-03-12T02:10:54;27.75;;;12.77;;
45366;SDS011;31100;55.848;37.636;2023-03-12T02:13:20;25.17;;;12.27;;
45366;SDS011;31100;55.848;37.636;2023-03-12T02:15:46;29.15;;;13.98;;
45366;SDS011;31100;55.848;37.636;2023-03-12T02:18:12;29.27;;;13.88;;
45366;SDS011;31100;55.848;37.636;2023-03-12T02:23:29;24.63;;;12.95;;
45366;SDS011;31100;55.848;37.636;2023-03-12T02:25:56;31.05;;;14.38;;
45366;SDS011;31100;55.848;37.636;2023-03-12T02:28:23;30.05;;;15.15;;
45366;SDS011;31100;55.848;37.636;2023-03-12T02:30:51;30.88;;;15.30;;
45366;SDS011;31100;55.848;37.636;2023-03-12T02:33:18;29.63;;;14.35;;
45366;SDS011;31100;55.848;37.636;2023-03-12T02:35:45;32.00;;;14.40;;
45366;SDS011;31100;55.848;37.636;2023-03-12T02:41:20;36.10;;;15.73;;
45366;SDS011;31100;55.848;37.636;2023-03-12T02:43:45;29.10;;;14.82;;
45366;SDS011;31100;55.848;37.636;2023-03-12T02:46:13;36.63;;;15.70;;
45366;SDS011;31100;55.848;37.636;2023-03-12T02:48:39;29.75;;;13.77;;
45366;SDS011;31100;55.848;37.636;2023-03-12T02:51:05;30.30;;;14.63;;
45366;SDS011;31100;55.848;37.636;2023-03-12T02:53:31;28.95;;;14.13;;
45366;SDS011;31100;55.848;37.636;2023-03-12T02:55:56;27.30;;;14.73;;
45366;SDS011;31100;55.848;37.636;2023-03-12T02:58:22;28.52;;;14.60;;
45366;SDS011;31100;55.848;37.636;2023-03-12T03:00:47;26.13;;;14.32;;
45366;SDS011;31100;55.848;37.636;2023-03-12T03:03:13;28.90;;;15.25;;
45366;SDS011;31100;55.848;37.636;2023-03-12T03:05:39;29.63;;;15.05;;
45366;SDS011;31100;55.848;37.636;2023-03-12T03:08:05;31.95;;;15.45;;
45366;SDS011;31100;55.848;37.636;2023-03-12T03:10:31;26.38;;;13.75;;
45366;SDS011;31100;55.848;37.636;2023-03-12T03:12:56;30.85;;;15.75;;
45366;SDS011;31100;55.848;37.636;2023-03-12T03:15:22;27.60;;;14.43;;
45366;SDS011;31100;55.848;37.636;2023-03-12T03:17:47;29.90;;;15.38;;
45366;SDS011;31100;55.848;37.636;2023-03-12T03:20:13;25.13;;;13.20;;
45366;SDS011;31100;55.848;37.636;2023-03-12T03:22:39;25.00;;;13.77;;
45366;SDS011;31100;55.848;37.636;2023-03-12T03:25:04;27.83;;;14.77;;
45366;SDS011;31100;55.848;37.636;2023-03-12T03:27:31;27.25;;;14.30;;
45366;SDS011;31100;55.848;37.636;2023-03-12T03:29:57;28.35;;;14.65;;
45366;SDS011;31100;55.848;37.636;2023-03-12T03:32:22;28.63;;;14.77;;
45366;SDS011;31100;55.848;37.636;2023-03-12T03:34:48;30.73;;;15.80;;
45366;SDS011;31100;55.848;37.636;2023-03-12T03:37:13;27.27;;;14.88;;
45366;SDS011;31100;55.848;37.636;2023-03-12T03:39:39;30.85;;;15.20;;
45366;SDS011;31100;55.848;37.636;2023-03-12T03:42:04;27.10;;;15.07;;
45366;SDS011;31100;55.848;37.636;2023-03-12T03:44:30;30.98;;;15.27;;
45366;SDS011;31100;55.848;37.636;2023-03-12T03:46:56;30.13;;;15.95;;
45366;SDS011;31100;55.848;37.636;2023-03-12T03:49:21;30.92;;;15.65;;
45366;SDS011;31100;55.848;37.636;2023-03-12T03:51:47;33.45;;;16.17;;
45366;SDS011;31100;55.848;37.636;2023-03-12T03:54:15;33.92;;;16.65;;
45366;SDS011;31100;55.848;37.636;2023-03-12T03:56:41;28.73;;;13.90;;
45366;SDS011;31100;55.848;37.636;2023-03-12T03:59:07;32.35;;;15.95;;
45366;SDS011;31100;55.848;37.636;2023-03-12T04:01:33;31.98;;;16.67;;
45366;SDS011;31100;55.848;37.636;2023-03-12T04:03:59;34.88;;;17.55;;
45366;SDS011;31100;55.848;37.636;2023-03-12T04:06:24;36.30;;;17.95;;
45366;SDS011;31100;55.848;37.636;2023-03-12T04:08:50;37.80;;;17.95;;
45366;SDS011;31100;55.848;37.636;2023-03-12T04:11:17;37.08;;;18.38;;
45366;SDS011;31100;55.848;37.636;2023-03-12T04:13:44;37.00;;;18.13;;
45366;SDS011;31100;55.848;37.636;2023-03-12T04:16:10;36.78;;;17.63;;
45366;SDS011;31100;55.848;37.636;2023-03-12T04:18:36;37.03;;;18.38;;
45366;SDS011;31100;55.848;37.636;2023-03-12T04:21:03;40.22;;;18.80;;
45366;SDS011;31100;55.848;37.636;2023-03-12T04:23:29;42.60;;;19.42;;
45366;SDS011;31100;55.848;37.636;2023-03-12T04:25:55;41.30;;;18.90;;
45366;SDS011;31100;55.848;37.636;2023-03-12T04:28:21;42.35;;;20.10;;
45366;SDS011;31100;55.848;37.636;2023-03-12T04:31:20;42.20;;;20.08;;
45366;SDS011;31100;55.848;37.636;2023-03-12T04:33:38;39.17;;;18.83;;
45366;SDS011;31100;55.848;37.636;2023-03-12T04:36:05;44.25;;;20.27;;
45366;SDS011;31100;55.848;37.636;2023-03-12T04:38:31;42.63;;;19.73;;
45366;SDS011;31100;55.848;37.636;2023-03-12T04:41:00;36.13;;;18.17;;
45366;SDS011;31100;55.848;37.636;2023-03-12T04:43:36;35.70;;;17.70;;
45366;SDS011;31100;55.848;37.636;2023-03-12T04:46:02;40.60;;;19.50;;
45366;SDS011;31100;55.848;37.636;2023-03-12T04:48:28;39.45;;;19.42;;
45366;SDS011;31100;55.848;37.636;2023-03-12T04:50:54;38.42;;;18.85;;
45366;SDS011;31100;55.848;37.636;2023-03-12T04:53:19;39.70;;;18.77;;
45366;SDS011;31100;55.848;37.636;2023-03-12T04:55:45;35.38;;;17.65;;
45366;SDS011;31100;55.848;37.636;2023-03-12T04:58:11;34.33;;;17.35;;
45366;SDS011;31100;55.848;37.636;2023-03-12T05:00:37;35.03;;;17.25;;
45366;SDS011;31100;55.848;37.636;2023-03-12T05:03:04;35.70;;;16.98;;
45366;SDS011;31100;55.848;37.636;2023-03-12T05:05:29;32.60;;;17.95;;
45366;SDS011;31100;55.848;37.636;2023-03-12T05:07:55;36.22;;;17.83;;
45366;SDS011;31100;55.848;37.636;2023-03-12T05:10:20;35.45;;;17.98;;
45366;SDS011;31100;55.848;37.636;2023-03-12T05:12:46;36.15;;;18.67;;
45366;SDS011;31100;55.848;37.636;2023-03-12T05:15:11;38.17;;;18.60;;
45366;SDS011;31100;55.848;37.636;2023-03-12T05:17:37;38.88;;;20.10;;
45366;SDS011;31100;55.848;37.636;2023-03-12T05:20:02;40.80;;;20.50;;
45366;SDS011;31100;55.848;37.636;2023-03-12T05:22:30;42.38;;;18.90;;
45366;SDS011;31100;55.848;37.636;2023-03-12T05:24:55;38.28;;;19.25;;
45366;SDS011;31100;55.848;37.636;2023-03-12T05:27:21;42.70;;;20.88;;
45366;SDS011;31100;55.848;37.636;2023-03-12T05:29:50;45.00;;;21.17;;
45366;SDS011;31100;55.848;37.636;2023-03-12T05:32:16;35.88;;;18.77;;
45366;SDS011;31100;55.848;37.636;2023-03-12T05:34:42;38.92;;;19.38;;
45366;SDS011;31100;55.848;37.636;2023-03-12T05:37:07;33.80;;;17.38;;
45366;SDS011;31100;55.848;37.636;2023-03-12T05:39:33;34.38;;;17.73;;
45366;SDS011;31100;55.848;37.636;2023-03-12T05:42:03;29.13;;;16.17;;
45366;SDS011;31100;55.848;37.636;2023-03-12T05:44:28;30.33;;;16.52;;
45366;SDS011;31100;55.848;37.636;2023-03-12T05:46:54;31.92;;;17.52;;
45366;SDS011;31100;55.848;37.636;2023-03-12T05:49:20;29.65;;;16.48;;
45366;SDS011;31100;55.848;37.636;2023-03-12T05:51:46;29.40;;;16.98;;
45366;SDS011;31100;55.848;37.636;2023-03-12T05:54:13;33.65;;;18.55;;
45366;SDS011;31100;55.848;37.636;2023-03-12T05:56:40;35.10;;;17.02;;
45366;SDS011;31100;55.848;37.636;2023-03-12T05:59:05;29.40;;;15.80;;
45366;SDS011;31100;55.848;37.636;2023-03-12T06:01:31;28.77;;;15.80;;
45366;SDS011;31100;55.848;37.636;2023-03-12T06:03:57;26.83;;;15.80;;
45366;SDS011;31100;55.848;37.636;2023-03-12T06:06:23;26.85;;;14.50;;
45366;SDS011;31100;55.848;37.636;2023-03-12T06:08:49;24.85;;;15.13;;
45366;SDS011;31100;55.848;37.636;2023-03-12T06:11:15;33.30;;;16.73;;
45366;SDS011;31100;55.848;37.636;2023-03-12T06:13:42;29.25;;;16.33;;
45366;SDS011;31100;55.848;37.636;2023-03-12T06:18:35;32.22;;;15.85;;
45366;SDS011;31100;55.848;37.636;2023-03-12T06:21:15;33.10;;;17.27;;
45366;SDS011;31100;55.848;37.636;2023-03-12T06:23:48;34.67;;;17.90;;
45366;SDS011;31100;55.848;37.636;2023-03-12T06:26:14;35.67;;;17.58;;
45366;SDS011;31100;55.848;37.636;2023-03-12T06:28:40;37.20;;;18.30;;
45366;SDS011;31100;55.848;37.636;2023-03-12T06:31:06;38.28;;;17.55;;
45366;SDS011;31100;55.848;37.636;2023-03-12T06:33:33;35.03;;;18.05;;
45366;SDS011;31100;55.848;37.636;2023-03-12T06:35:59;36.17;;;17.63;;
45366;SDS011;31100;55.848;37.636;2023-03-12T06:38:26;36.85;;;17.83;;
45366;SDS011;31100;55.848;37.636;2023-03-12T06:40:56;38.08;;;18.25;;
45366;SDS011;31100;55.848;37.636;2023-03-12T06:43:23;36.58;;;17.77;;
45366;SDS011;31100;55.848;37.636;2023-03-12T06:45:49;38.95;;;18.15;;
45366;SDS011;31100;55.848;37.636;2023-03-12T06:48:15;36.33;;;17.88;;
45366;SDS011;31100;55.848;37.636;2023-03-12T06:50:40;36.80;;;18.35;;
45366;SDS011;31100;55.848;37.636;2023-03-12T06:53:06;38.47;;;18.20;;
45366;SDS011;31100;55.848;37.636;2023-03-12T06:55:32;42.22;;;19.50;;
45366;SDS011;31100;55.848;37.636;2023-03-12T06:57:57;40.58;;;20.25;;
45366;SDS011;31100;55.848;37.636;2023-03-12T07:00:23;48.30;;;21.15;;
45366;SDS011;31100;55.848;37.636;2023-03-12T07:02:48;46.17;;;20.27;;
45366;SDS011;31100;55.848;37.636;2023-03-12T07:05:14;46.55;;;20.67;;
45366;SDS011;31100;55.848;37.636;2023-03-12T07:07:39;43.58;;;21.83;;
45366;SDS011;31100;55.848;37.636;2023-03-12T07:10:05;45.78;;;21.20;;
45366;SDS011;31100;55.848;37.636;2023-03-12T07:12:31;43.85;;;21.75;;
45366;SDS011;31100;55.848;37.636;2023-03-12T07:14:57;48.58;;;21.05;;
45366;SDS011;31100;55.848;37.636;2023-03-12T07:17:23;39.25;;;17.92;;
45366;SDS011;31100;55.848;37.636;2023-03-12T07:19:49;42.90;;;19.80;;
45366;SDS011;31100;55.848;37.636;2023-03-12T07:22:15;46.80;;;23.30;;
45366;SDS011;31100;55.848;37.636;2023-03-12T07:24:41;48.13;;;21.65;;
45366;SDS011;31100;55.848;37.636;2023-03-12T07:27:07;48.47;;;23.73;;
45366;SDS011;31100;55.848;37.636;2023-03-12T07:29:32;45.10;;;21.17;;
45366;SDS011;31100;55.848;37.636;2023-03-12T07:31:58;41.00;;;20.58;;
45366;SDS011;31100;55.848;37.636;2023-03-12T07:34:23;43.60;;;21.02;;
45366;SDS011;31100;55.848;37.636;2023-03-12T07:36:49;38.47;;;19.30;;
45366;SDS011;31100;55.848;37.636;2023-03-12T07:39:14;40.50;;;20.80;;
45366;SDS011;31100;55.848;37.636;2023-03-12T07:41:40;41.88;;;20.65;;
45366;SDS011;31100;55.848;37.636;2023-03-12T07:44:05;41.13;;;20.40;;
45366;SDS011;31100;55.848;37.636;2023-03-12T07:46:31;42.17;;;21.42;;
45366;SDS011;31100;55.848;37.636;2023-03-12T07:48:57;52.25;;;25.95;;
45366;SDS011;31100;55.848;37.636;2023-03-12T07:51:25;46.45;;;20.65;;
45366;SDS011;31100;55.848;37.636;2023-03-12T07:53:50;38.83;;;20.20;;
45366;SDS011;31100;55.848;37.636;2023-03-12T07:56:16;41.58;;;20.38;;
45366;SDS011;31100;55.848;37.636;2023-03-12T07:58:41;40.67;;;20.00;;
45366;SDS011;31100;55.848;37.636;2023-03-12T08:01:07;43.85;;;20.90;;
45366;SDS011;31100;55.848;37.636;2023-03-12T08:03:33;40.70;;;19.23;;
45366;SDS011;31100;55.848;37.636;2023-03-12T08:05:59;35.90;;;18.27;;
45366;SDS011;31100;55.848;37.636;2023-03-12T08:08:26;31.35;;;17.23;;
45366;SDS011;31100;55.848;37.636;2023-03-12T08:10:52;29.92;;;16.25;;
45366;SDS011;31100;55.848;37.636;2023-03-12T08:13:18;31.00;;;17.20;;
45366;SDS011;31100;55.848;37.636;2023-03-12T08:15:44;26.73;;;15.65;;
45366;SDS011;31100;55.848;37.636;2023-03-12T08:18:09;27.02;;;15.82;;
45366;SDS011;31100;55.848;37.636;2023-03-12T08:20:35;27.23;;;16.27;;
45366;SDS011;31100;55.848;37.636;2023-03-12T08:23:01;25.30;;;15.02;;
45366;SDS011;31100;55.848;37.636;2023-03-12T08:25:26;23.33;;;13.07;;
45366;SDS011;31100;55.848;37.636;2023-03-12T08:27:53;22.98;;;13.55;;
45366;SDS011;31100;55.848;37.636;2023-03-12T08:30:18;25.55;;;13.70;;
45366;SDS011;31100;55.848;37.636;2023-03-12T08:32:44;22.08;;;12.27;;
45366;SDS011;31100;55.848;37.636;2023-03-12T08:35:09;25.75;;;13.95;;
45366;SDS011;31100;55.848;37.636;2023-03-12T08:37:35;24.00;;;13.68;;
45366;SDS011;31100;55.848;37.636;2023-03-12T08:40:01;26.25;;;15.32;;
45366;SDS011;31100;55.848;37.636;2023-03-12T08:42:29;25.40;;;14.35;;
45366;SDS011;31100;55.848;37.636;2023-03-12T08:44:55;25.67;;;14.80;;
45366;SDS011;31100;55.848;37.636;2023-03-12T08:47:20;29.75;;;15.57;;
45366;SDS011;31100;55.848;37.636;2023-03-12T08:49:46;27.30;;;14.85;;
45366;SDS011;31100;55.848;37.636;2023-03-12T08:52:11;22.75;;;12.68;;
45366;SDS011;31100;55.848;37.636;2023-03-12T08:54:37;20.95;;;12.73;;
45366;SDS011;31100;55.848;37.636;2023-03-12T08:57:02;23.50;;;12.88;;
45366;SDS011;31100;55.848;37.636;2023-03-12T08:59:28;22.40;;;12.48;;
45366;SDS011;31100;55.848;37.636;2023-03-12T09:01:53;23.05;;;12.73;;
45366;SDS011;31100;55.848;37.636;2023-03-12T09:04:19;22.45;;;12.82;;
45366;SDS011;31100;55.848;37.636;2023-03-12T09:06:44;19.90;;;12.23;;
45366;SDS011;31100;55.848;37.636;2023-03-12T09:09:10;18.95;;;12.18;;
45366;SDS011;31100;55.848;37.636;2023-03-12T09:11:37;20.83;;;12.20;;
45366;SDS011;31100;55.848;37.636;2023-03-12T09:14:04;19.45;;;11.20;;
45366;SDS011;31100;55.848;37.636;2023-03-12T09:16:29;18.88;;;11.73;;
45366;SDS011;31100;55.848;37.636;2023-03-12T09:18:56;18.17;;;10.82;;
45366;SDS011;31100;55.848;37.636;2023-03-12T09:21:21;16.77;;;10.68;;
45366;SDS011;31100;55.848;37.636;2023-03-12T09:23:47;16.02;;;9.68;;
45366;SDS011;31100;55.848;37.636;2023-03-12T09:26:13;17.65;;;9.70;;
45366;SDS011;31100;55.848;37.636;2023-03-12T09:28:39;18.17;;;9.43;;
45366;SDS011;31100;55.848;37.636;2023-03-12T09:31:05;14.85;;;8.50;;
45366;SDS011;31100;55.848;37.636;2023-03-12T09:33:31;15.20;;;8.95;;
45366;SDS011;31100;55.848;37.636;2023-03-12T09:35:58;16.48;;;9.45;;
45366;SDS011;31100;55.848;37.636;2023-03-12T09:38:24;13.88;;;8.15;;
45366;SDS011;31100;55.848;37.636;2023-03-12T09:40:50;16.17;;;9.15;;
45366;SDS011;31100;55.848;37.636;2023-03-12T09:43:21;10.32;;;7.00;;
45366;SDS011;31100;55.848;37.636;2023-03-12T09:46:17;11.90;;;7.65;;
45366;SDS011;31100;55.848;37.636;2023-03-12T09:48:46;11.13;;;7.18;;
45366;SDS011;31100;55.848;37.636;2023-03-12T09:53:39;11.00;;;7.53;;
45366;SDS011;31100;55.848;37.636;2023-03-12T09:56:12;12.57;;;7.30;;
45366;SDS011;31100;55.848;37.636;2023-03-12T09:58:43;11.07;;;6.40;;
45366;SDS011;31100;55.848;37.636;2023-03-12T10:04:13;9.65;;;5.53;;
45366;SDS011;31100;55.848;37.636;2023-03-12T10:07:23;8.48;;;5.00;;
45366;SDS011;31100;55.848;37.636;2023-03-12T10:10:12;8.43;;;5.22;;
45366;SDS011;31100;55.848;37.636;2023-03-12T10:12:46;7.97;;;4.88;;
45366;SDS011;31100;55.848;37.636;2023-03-12T10:26:15;7.20;;;4.47;;
45366;SDS011;31100;55.848;37.636;2023-03-12T10:28:47;6.18;;;4.50;;
45366;SDS011;31100;55.848;37.636;2023-03-12T10:31:18;5.05;;;3.25;;
45366;SDS011;31100;55.848;37.636;2023-03-12T10:33:55;8.35;;;4.65;;
45366;SDS011;31100;55.848;37.636;2023-03-12T10:36:27;6.68;;;4.30;;
45366;SDS011;31100;55.848;37.636;2023-03-12T10:38:59;6.03;;;4.10;;
45366;SDS011;31100;55.848;37.636;2023-03-12T10:41:27;9.48;;;4.82;;
45366;SDS011;31100;55.848;37.636;2023-03-12T10:43:54;7.78;;;5.18;;
45366;SDS011;31100;55.848;37.636;2023-03-12T10:46:41;8.82;;;5.03;;
45366;SDS011;31100;55.848;37.636;2023-03-12T10:54:36;9.00;;;5.75;;
45366;SDS011;31100;55.848;37.636;2023-03-12T10:57:02;10.75;;;5.60;;
45366;SDS011;31100;55.848;37.636;2023-03-12T10:59:30;10.20;;;6.53;;
45366;SDS011;31100;55.848;37.636;2023-03-12T11:01:58;14.38;;;6.45;;
45366;SDS011;31100;55.848;37.636;2023-03-12T11:04:26;8.38;;;5.90;;
45366;SDS011;31100;55.848;37.636;2023-03-12T11:09:34;9.43;;;7.00;;
45366;SDS011;31100;55.848;37.636;2023-03-12T11:12:00;10.50;;;7.35;;
45366;SDS011;31100;55.848;37.636;2023-03-12T11:14:27;10.35;;;7.78;;
45366;SDS011;31100;55.848;37.636;2023-03-12T11:16:54;11.13;;;7.95;;
45366;SDS011;31100;55.848;37.636;2023-03-12T11:19:30;11.55;;;7.72;;
45366;SDS011;31100;55.848;37.636;2023-03-12T11:22:03;15.70;;;9.13;;
45366;SDS011;31100;55.848;37.636;2023-03-12T11:24:33;12.52;;;8.70;;
45366;SDS011;31100;55.848;37.636;2023-03-12T11:30:02;12.63;;;9.35;;
45366;SDS011;31100;55.848;37.636;2023-03-12T11:32:31;18.75;;;9.57;;
45366;SDS011;31100;55.848;37.636;2023-03-12T11:34:59;14.20;;;8.90;;
45366;SDS011;31100;55.848;37.636;2023-03-12T11:48:17;15.00;;;11.07;;
45366;SDS011;31100;55.848;37.636;2023-03-12T11:56:48;5.55;;;3.72;;
45366;SDS011;31100;55.848;37.636;2023-03-12T11:59:20;2.25;;;1.10;;
45366;SDS011;31100;55.848;37.636;2023-03-12T12:05:17;4.63;;;1.02;;
45366;SDS011;31100;55.848;37.636;2023-03-12T12:27:35;2.45;;;0.65;;
45366;SDS011;31100;55.848;37.636;2023-03-12T12:32:45;2.22;;;0.85;;
45366;SDS011;31100;55.848;37.636;2023-03-12T12:35:47;2.20;;;0.68;;
45366;SDS011;31100;55.848;37.636;2023-03-12T12:40:55;2.45;;;0.70;;
45366;SDS011;31100;55.848;37.636;2023-03-12T12:43:30;2.25;;;0.80;;
45366;SDS011;31100;55.848;37.636;2023-03-12T12:51:26;2.40;;;0.90;;
45366;SDS011;31100;55.848;37.636;2023-03-12T12:53:59;3.42;;;0.93;;
45366;SDS011;31100;55.848;37.636;2023-03-12T12:56:31;2.90;;;1.00;;
45366;SDS011;31100;55.848;37.636;2023-03-12T13:01:50;2.33;;;0.98;;
45366;SDS011;31100;55.848;37.636;2023-03-12T13:04:24;2.85;;;0.90;;
45366;SDS011;31100;55.848;37.636;2023-03-12T13:07:01;3.03;;;1.20;;
45366;SDS011;31100;55.848;37.636;2023-03-12T13:09:36;2.08;;;0.90;;
45366;SDS011;31100;55.848;37.636;2023-03-12T13:12:14;1.88;;;0.82;;
45366;SDS011;31100;55.848;37.636;2023-03-12T13:14:43;1.85;;;0.85;;
45366;SDS011;31100;55.848;37.636;2023-03-12T13:19:53;1.92;;;0.93;;
45366;SDS011;31100;55.848;37.636;2023-03-12T13:22:38;1.88;;;0.85;;
45366;SDS011;31100;55.848;37.636;2023-03-12T13:27:59;3.13;;;0.93;;
45366;SDS011;31100;55.848;37.636;2023-03-12T13:30:43;2.10;;;0.90;;
45366;SDS011;31100;55.848;37.636;2023-03-12T13:33:11;3.17;;;1.17;;
45366;SDS011;31100;55.848;37.636;2023-03-12T13:35:38;2.13;;;1.20;;
45366;SDS011;31100;55.848;37.636;2023-03-12T13:38:33;2.22;;;1.00;;
45366;SDS011;31100;55.848;37.636;2023-03-12T13:41:04;1.70;;;1.00;;
45366;SDS011;31100;55.848;37.636;2023-03-12T13:46:06;2.60;;;1.13;;
45366;SDS011;31100;55.848;37.636;2023-03-12T13:48:45;2.13;;;1.08;;
45366;SDS011;31100;55.848;37.636;2023-03-12T13:51:22;2.65;;;1.40;;
45366;SDS011;31100;55.848;37.636;2023-03-12T13:53:49;2.30;;;1.20;;
45366;SDS011;31100;55.848;37.636;2023-03-12T13:56:18;4.68;;;1.50;;
45366;SDS011;31100;55.848;37.636;2023-03-12T13:58:47;3.15;;;1.55;;
45366;SDS011;31100;55.848;37.636;2023-03-12T14:01:14;2.88;;;1.45;;
45366;SDS011;31100;55.848;37.636;2023-03-12T14:03:46;2.42;;;1.20;;
45366;SDS011;31100;55.848;37.636;2023-03-12T14:06:17;2.97;;;1.30;;
45366;SDS011;31100;55.848;37.636;2023-03-12T14:11:46;3.25;;;1.60;;
45366;SDS011;31100;55.848;37.636;2023-03-12T14:17:19;4.28;;;1.35;;
45366;SDS011;31100;55.848;37.636;2023-03-12T14:19:54;2.35;;;1.20;;
45366;SDS011;31100;55.848;37.636;2023-03-12T14:22:31;2.08;;;1.00;;
45366;SDS011;31100;55.848;37.636;2023-03-12T14:25:00;2.40;;;1.27;;
45366;SDS011;31100;55.848;37.636;2023-03-12T14:27:31;2.10;;;1.10;;
45366;SDS011;31100;55.848;37.636;2023-03-12T14:30:09;1.70;;;0.90;;
45366;SDS011;31100;55.848;37.636;2023-03-12T14:32:35;2.60;;;0.90;;
45366;SDS011;31100;55.848;37.636;2023-03-12T14:35:07;4.47;;;1.40;;
45366;SDS011;31100;55.848;37.636;2023-03-12T14:37:39;3.25;;;1.20;;
45366;SDS011;31100;55.848;37.636;2023-03-12T14:43:18;2.63;;;1.30;;
45366;SDS011;31100;55.848;37.636;2023-03-12T14:45:44;2.95;;;1.92;;
45366;SDS011;31100;55.848;37.636;2023-03-12T14:48:10;2.47;;;1.10;;
45366;SDS011;31100;55.848;37.636;2023-03-12T14:50:37;2.53;;;1.20;;
45366;SDS011;31100;55.848;37.636;2023-03-12T14:58:30;3.13;;;1.23;;
45366;SDS011;31100;55.848;37.636;2023-03-12T15:01:06;2.88;;;1.33;;
45366;SDS011;31100;55.848;37.636;2023-03-12T15:03:33;3.17;;;1.10;;
45366;SDS011;31100;55.848;37.636;2023-03-12T15:06:10;3.15;;;1.05;;
45366;SDS011;31100;55.848;37.636;2023-03-12T15:08:44;2.60;;;1.27;;
45366;SDS011;31100;55.848;37.636;2023-03-12T15:11:10;2.33;;;1.17;;
45366;SDS011;31100;55.848;37.636;2023-03-12T15:13:36;2.90;;;1.30;;
45366;SDS011;31100;55.848;37.636;2023-03-12T15:16:02;3.90;;;1.92;;
45366;SDS011;31100;55.848;37.636;2023-03-12T15:18:29;1.90;;;1.20;;
45366;SDS011;31100;55.848;37.636;2023-03-12T15:20:57;3.85;;;1.60;;
45366;SDS011;31100;55.848;37.636;2023-03-12T15:23:25;3.67;;;1.20;;
45366;SDS011;31100;55.848;37.636;2023-03-12T15:28:38;4.55;;;1.40;;
45366;SDS011;31100;55.848;37.636;2023-03-12T15:31:05;1.85;;;1.00;;
45366;SDS011;31100;55.848;37.636;2023-03-12T15:33:37;3.67;;;1.90;;
45366;SDS011;31100;55.848;37.636;2023-03-12T15:36:04;3.88;;;1.77;;
45366;SDS011;31100;55.848;37.636;2023-03-12T15:39:00;2.58;;;1.35;;
45366;SDS011;31100;55.848;37.636;2023-03-12T15:44:13;3.35;;;1.60;;
45366;SDS011;31100;55.848;37.636;2023-03-12T15:46:46;4.07;;;2.10;;
45366;SDS011;31100;55.848;37.636;2023-03-12T15:49:31;3.03;;;1.65;;
45366;SDS011;31100;55.848;37.636;2023-03-12T15:52:06;3.13;;;1.95;;
45366;SDS011;31100;55.848;37.636;2023-03-12T15:57:55;3.65;;;2.03;;
45366;SDS011;31100;55.848;37.636;2023-03-12T16:05:21;4.25;;;2.85;;
45366;SDS011;31100;55.848;37.636;2023-03-12T16:07:49;3.53;;;1.70;;
45366;SDS011;31100;55.848;37.636;2023-03-12T16:10:17;4.45;;;2.40;;
45366;SDS011;31100;55.848;37.636;2023-03-12T16:12:44;5.75;;;3.50;;
45366;SDS011;31100;55.848;37.636;2023-03-12T16:15:14;4.97;;;2.95;;
45366;SDS011;31100;55.848;37.636;2023-03-12T16:17:41;5.30;;;3.10;;
45366;SDS011;31100;55.848;37.636;2023-03-12T16:20:11;6.22;;;2.85;;
45366;SDS011;31100;55.848;37.636;2023-03-12T16:22:38;6.93;;;3.03;;
45366;SDS011;31100;55.848;37.636;2023-03-12T16:25:04;5.82;;;3.50;;
45366;SDS011;31100;55.848;37.636;2023-03-12T16:27:30;4.93;;;2.65;;
45366;SDS011;31100;55.848;37.636;2023-03-12T16:29:58;4.03;;;2.65;;
45366;SDS011;31100;55.848;37.636;2023-03-12T16:32:23;5.10;;;3.40;;
45366;SDS011;31100;55.848;37.636;2023-03-12T16:34:49;5.00;;;2.63;;
45366;SDS011;31100;55.848;37.636;2023-03-12T16:37:14;4.35;;;2.70;;